createdAt,value
2017-10-26T00:01:37.674Z,23.45
2017-10-26T00:04:05.308Z,25.67
2017-10-26T00:06:32.841Z,32.90
2017-10-26T00:09:00.407Z,33.80
2017-10-26T00:11:27.953Z,32.38
2017-10-26T00:13:55.554Z,35.92
2017-10-26T00:16:23.873Z,39.72
2017-10-26T00:18:51.437Z,35.30
2017-10-26T00:21:19.014Z,45.70
2017-10-26T00:23:46.558Z,43.53
2017-10-26T00:26:14.124Z,47.15
2017-10-26T00:28:41.702Z,46.70
2017-10-26T00:31:09.267Z,36.40
2017-10-26T00:33:36.803Z,42.10
2017-10-26T00:36:04.347Z,42.30
2017-10-26T00:38:31.931Z,41.53
2017-10-26T00:40:59.503Z,43.17
2017-10-26T00:43:27.067Z,40.85
2017-10-26T00:45:54.634Z,47.75
2017-10-26T00:48:23.889Z,38.37
2017-10-26T00:50:52.486Z,46.90
2017-10-26T00:53:25.587Z,39.15
2017-10-26T00:55:53.611Z,38.92
2017-10-26T00:58:22.597Z,42.22
2017-10-26T01:00:51.210Z,39.73
2017-10-26T01:03:18.870Z,37.13
2017-10-26T01:05:49.189Z,40.50
2017-10-26T01:08:16.935Z,36.33
2017-10-26T01:10:45.383Z,40.17
2017-10-26T01:13:13.404Z,38.25
2017-10-26T01:15:41.178Z,42.80
2017-10-26T01:18:09.673Z,40.60
2017-10-26T01:20:37.631Z,37.50
2017-10-26T01:23:06.564Z,35.13
2017-10-26T01:25:34.303Z,40.20
2017-10-26T01:28:03.942Z,40.85
2017-10-26T01:30:33.393Z,44.20
2017-10-26T01:33:01.195Z,42.50
2017-10-26T01:35:29.016Z,46.70
2017-10-26T01:37:59.731Z,47.33
2017-10-26T01:40:28.336Z,43.58
2017-10-26T01:42:57.648Z,42.47
2017-10-26T01:45:25.352Z,47.92
2017-10-26T01:47:52.937Z,48.97
2017-10-26T01:50:20.524Z,55.30
2017-10-26T01:52:48.073Z,47.58
2017-10-26T01:55:15.684Z,49.80
2017-10-26T01:57:43.242Z,45.38
2017-10-26T02:00:10.838Z,42.97
2017-10-26T02:02:38.382Z,48.53
2017-10-26T02:05:05.970Z,51.50
2017-10-26T02:07:33.512Z,51.80
2017-10-26T02:10:01.073Z,55.12
2017-10-26T02:12:28.658Z,53.40
2017-10-26T02:14:57.005Z,59.33
2017-10-26T02:17:24.626Z,54.05
2017-10-26T02:19:52.930Z,51.65
2017-10-26T02:22:20.487Z,61.15
2017-10-26T02:24:48.029Z,60.33
2017-10-26T02:27:16.346Z,58.35
2017-10-26T02:29:55.739Z,62.90
2017-10-26T02:32:24.098Z,55.90
2017-10-26T02:34:52.439Z,57.15
2017-10-26T02:37:19.996Z,56.30
2017-10-26T02:39:47.553Z,50.60
2017-10-26T02:42:15.087Z,95.47
2017-10-26T02:44:43.426Z,71.07
2017-10-26T02:47:10.969Z,58.63
2017-10-26T02:49:38.542Z,75.87
2017-10-26T02:52:06.095Z,85.10
2017-10-26T02:54:33.669Z,70.28
2017-10-26T02:57:01.215Z,66.10
2017-10-26T02:59:28.832Z,62.72
2017-10-26T03:01:56.453Z,53.95
2017-10-26T03:04:24.095Z,49.47
2017-10-26T03:06:51.660Z,48.70
2017-10-26T03:09:19.190Z,51.70
2017-10-26T03:11:46.750Z,43.38
2017-10-26T03:14:14.375Z,51.13
2017-10-26T03:16:41.935Z,41.47
2017-10-26T03:19:09.526Z,44.58
2017-10-26T03:21:37.090Z,45.88
2017-10-26T03:24:04.633Z,45.67
2017-10-26T03:26:32.982Z,42.30
2017-10-26T03:29:00.521Z,47.73
2017-10-26T03:31:28.049Z,41.63
2017-10-26T03:33:55.616Z,39.60
2017-10-26T03:36:23.138Z,40.70
2017-10-26T03:38:51.464Z,38.95
2017-10-26T03:41:19.013Z,35.55
2017-10-26T03:43:46.611Z,37.15
2017-10-26T03:46:14.219Z,36.58
2017-10-26T03:48:42.602Z,32.80
2017-10-26T03:51:10.189Z,39.43
2017-10-26T03:53:37.756Z,36.40
2017-10-26T03:56:05.314Z,37.88
2017-10-26T03:58:32.836Z,44.10
2017-10-26T04:01:01.171Z,32.47
2017-10-26T04:03:28.713Z,41.08
2017-10-26T04:05:56.366Z,28.87
2017-10-26T04:08:23.904Z,35.10
2017-10-26T04:13:23.965Z,29.83
2017-10-26T04:15:51.526Z,22.98
2017-10-26T04:18:19.101Z,25.93
2017-10-26T04:20:46.658Z,24.20
2017-10-26T04:23:14.270Z,25.02
2017-10-26T04:25:42.595Z,24.37
2017-10-26T04:28:10.252Z,22.65
2017-10-26T04:30:37.822Z,22.40
2017-10-26T04:33:05.402Z,20.37
2017-10-26T04:35:32.976Z,25.30
2017-10-26T04:38:00.614Z,21.40
2017-10-26T04:40:28.181Z,22.87
2017-10-26T04:42:55.768Z,29.85
2017-10-26T04:45:23.298Z,23.73
2017-10-26T04:47:50.820Z,27.45
2017-10-26T04:50:18.388Z,38.72
2017-10-26T04:52:45.942Z,36.77
2017-10-26T04:55:13.481Z,45.03
2017-10-26T04:57:41.894Z,38.77
2017-10-26T05:00:34.982Z,53.97
2017-10-26T05:03:03.334Z,95.38
2017-10-26T05:05:31.198Z,93.28
2017-10-26T05:07:59.068Z,128.43
2017-10-26T05:13:35.172Z,156.10
2017-10-26T05:16:06.084Z,161.62
2017-10-26T05:21:36.387Z,82.18
2017-10-26T05:24:03.921Z,87.80
2017-10-26T05:26:41.395Z,52.95
2017-10-26T05:29:08.947Z,60.65
2017-10-26T05:31:36.465Z,115.22
2017-10-26T05:34:04.013Z,40.10
2017-10-26T05:36:32.320Z,68.03
2017-10-26T05:38:59.917Z,112.22
2017-10-26T05:41:27.452Z,106.35
2017-10-26T05:43:55.009Z,78.43
2017-10-26T05:46:22.532Z,87.88
2017-10-26T05:48:50.825Z,51.17
2017-10-26T05:51:18.328Z,45.45
2017-10-26T05:53:45.861Z,32.47
2017-10-26T05:56:13.427Z,39.35
2017-10-26T05:58:40.969Z,28.60
2017-10-26T06:01:08.508Z,27.70
2017-10-26T06:03:36.065Z,26.70
2017-10-26T06:06:03.624Z,21.85
2017-10-26T06:08:31.160Z,24.70
2017-10-26T06:10:59.471Z,25.73
2017-10-26T06:13:27.072Z,20.35
2017-10-26T06:15:54.613Z,23.75
2017-10-26T06:18:22.157Z,24.40
2017-10-26T06:20:49.695Z,30.15
2017-10-26T06:23:17.248Z,22.15
2017-10-26T06:25:52.866Z,30.23
2017-10-26T06:28:20.407Z,26.92
2017-10-26T06:30:48.011Z,25.25
2017-10-26T06:33:16.320Z,26.55
2017-10-26T06:35:43.871Z,47.55
2017-10-26T06:38:11.405Z,25.35
2017-10-26T06:40:39.714Z,28.00
2017-10-26T06:43:07.237Z,25.02
2017-10-26T06:45:35.582Z,38.42
2017-10-26T06:48:03.089Z,85.73
2017-10-26T06:50:30.653Z,50.73
2017-10-26T06:52:58.185Z,190.55
2017-10-26T06:55:25.724Z,96.13
2017-10-26T06:57:53.274Z,66.90
2017-10-26T07:00:20.802Z,39.72
2017-10-26T07:02:58.033Z,53.75
2017-10-26T07:05:25.582Z,121.03
2017-10-26T07:07:53.134Z,108.17
2017-10-26T07:10:20.673Z,52.15
2017-10-26T07:12:48.222Z,66.28
2017-10-26T07:15:15.766Z,70.12
2017-10-26T07:17:43.315Z,66.75
2017-10-26T07:20:10.866Z,29.15
2017-10-26T07:22:39.174Z,54.40
2017-10-26T07:25:06.725Z,39.05
2017-10-26T07:27:34.253Z,16.70
2017-10-26T07:30:02.573Z,16.85
2017-10-26T07:32:30.110Z,17.12
2017-10-26T07:34:57.661Z,15.75
2017-10-26T07:37:25.978Z,14.27
2017-10-26T07:39:53.531Z,17.62
2017-10-26T07:42:21.069Z,18.17
2017-10-26T07:44:48.615Z,19.67
2017-10-26T07:47:16.178Z,16.87
2017-10-26T07:49:43.711Z,15.77
2017-10-26T07:52:11.295Z,14.20
2017-10-26T07:54:38.846Z,14.18
2017-10-26T07:57:06.399Z,15.20
2017-10-26T07:59:34.697Z,16.03
2017-10-26T08:02:02.227Z,17.13
2017-10-26T08:04:29.765Z,16.20
2017-10-26T08:06:57.285Z,15.40
2017-10-26T08:09:24.858Z,13.10
2017-10-26T08:11:52.383Z,14.85
2017-10-26T08:14:19.938Z,13.57
2017-10-26T08:16:48.231Z,16.73
2017-10-26T08:19:15.793Z,13.55
2017-10-26T08:21:43.318Z,12.73
2017-10-26T08:24:11.626Z,11.70
2017-10-26T08:26:39.186Z,10.43
2017-10-26T08:29:06.717Z,14.13
2017-10-26T08:31:44.654Z,8.30
2017-10-26T08:34:12.181Z,11.30
2017-10-26T08:36:40.492Z,12.17
2017-10-26T08:39:08.017Z,9.63
2017-10-26T08:41:35.595Z,12.93
2017-10-26T08:44:03.129Z,10.87
2017-10-26T08:46:31.424Z,12.87
2017-10-26T08:48:58.964Z,9.03
2017-10-26T08:51:27.261Z,9.43
2017-10-26T08:53:55.750Z,14.67
2017-10-26T08:56:23.301Z,8.40
2017-10-26T08:58:50.856Z,10.80
2017-10-26T09:01:18.374Z,9.77
2017-10-26T09:03:45.892Z,9.43
2017-10-26T09:06:13.433Z,8.07
2017-10-26T09:08:40.969Z,10.63
2017-10-26T09:11:09.292Z,10.83
2017-10-26T09:13:36.826Z,9.00
2017-10-26T09:16:04.370Z,9.60
2017-10-26T09:18:32.645Z,9.00
2017-10-26T09:21:00.943Z,10.47
2017-10-26T09:23:28.483Z,8.57
2017-10-26T09:25:56.763Z,9.03
2017-10-26T09:28:24.325Z,8.40
2017-10-26T09:30:52.610Z,8.53
2017-10-26T09:33:25.685Z,10.23
2017-10-26T09:35:53.973Z,9.03
2017-10-26T09:38:21.514Z,7.83
2017-10-26T09:40:49.807Z,7.00
2017-10-26T09:43:17.365Z,8.37
2017-10-26T09:45:44.920Z,7.20
2017-10-26T09:48:12.436Z,6.10
2017-10-26T09:50:39.990Z,6.03
2017-10-26T09:53:07.532Z,6.10
2017-10-26T09:55:35.065Z,5.50
2017-10-26T09:58:02.610Z,6.83
2017-10-26T10:00:30.990Z,6.47
2017-10-26T10:02:59.264Z,7.67
2017-10-26T10:05:27.650Z,7.63
2017-10-26T10:07:55.170Z,8.33
2017-10-26T10:10:22.686Z,6.43
2017-10-26T10:12:50.221Z,7.57
2017-10-26T10:15:18.518Z,7.20
2017-10-26T10:17:46.060Z,7.60
2017-10-26T10:20:13.627Z,7.73
2017-10-26T10:22:41.186Z,8.20
2017-10-26T10:25:08.710Z,7.33
2017-10-26T10:27:36.285Z,6.50
2017-10-26T10:30:04.561Z,8.20
2017-10-26T10:32:33.030Z,4.63
2017-10-26T10:35:01.333Z,10.10
2017-10-26T10:37:28.863Z,4.57
2017-10-26T10:39:56.418Z,9.00
2017-10-26T10:42:23.934Z,6.40
2017-10-26T10:44:51.546Z,8.33
2017-10-26T10:47:19.840Z,9.10
2017-10-26T10:49:47.386Z,7.60
2017-10-26T10:52:15.689Z,7.90
2017-10-26T10:54:43.230Z,4.30
2017-10-26T10:57:11.613Z,8.53
2017-10-26T10:59:44.700Z,8.63
2017-10-26T11:02:12.254Z,7.10
2017-10-26T11:04:40.541Z,5.90
2017-10-26T11:07:08.085Z,4.40
2017-10-26T11:09:36.383Z,4.40
2017-10-26T11:12:03.934Z,7.27
2017-10-26T11:14:31.463Z,7.37
2017-10-26T11:16:59.007Z,5.73
2017-10-26T11:19:26.518Z,6.00
2017-10-26T11:21:54.057Z,4.80
2017-10-26T11:24:21.602Z,3.00
2017-10-26T11:26:49.905Z,2.60
2017-10-26T11:29:17.436Z,2.63
2017-10-26T11:31:44.941Z,2.80
2017-10-26T11:34:12.500Z,5.90
2017-10-26T11:36:40.022Z,3.37
2017-10-26T11:39:07.569Z,3.23
2017-10-26T11:41:35.080Z,2.30
2017-10-26T11:44:02.620Z,6.10
2017-10-26T11:46:30.139Z,4.10
2017-10-26T11:48:57.668Z,3.87
2017-10-26T11:51:25.206Z,3.23
2017-10-26T11:53:52.738Z,4.83
2017-10-26T11:56:21.055Z,4.10
2017-10-26T11:58:48.572Z,3.70
2017-10-26T12:01:16.878Z,4.57
2017-10-26T12:03:45.323Z,4.07
2017-10-26T12:06:13.629Z,6.10
2017-10-26T12:08:41.172Z,8.20
2017-10-26T12:11:08.702Z,3.23
2017-10-26T12:13:36.299Z,3.70
2017-10-26T12:16:03.816Z,4.53
2017-10-26T12:18:31.345Z,4.90
2017-10-26T12:20:58.997Z,4.90
2017-10-26T12:23:26.540Z,3.80
2017-10-26T12:25:54.077Z,5.07
2017-10-26T12:28:22.446Z,6.90
2017-10-26T12:30:50.748Z,5.30
2017-10-26T12:33:18.265Z,4.80
2017-10-26T12:35:45.813Z,6.30
2017-10-26T12:38:13.339Z,5.23
2017-10-26T12:40:40.886Z,5.73
2017-10-26T12:43:08.433Z,5.90
2017-10-26T12:45:36.021Z,8.17
2017-10-26T12:48:03.552Z,7.87
2017-10-26T12:50:31.105Z,6.73
2017-10-26T12:52:59.397Z,8.77
2017-10-26T12:55:27.858Z,6.83
2017-10-26T12:57:55.393Z,11.23
2017-10-26T13:00:22.920Z,6.57
2017-10-26T13:02:50.459Z,7.93
2017-10-26T13:05:17.974Z,6.57
2017-10-26T13:07:45.518Z,7.80
2017-10-26T13:10:13.027Z,7.67
2017-10-26T13:12:40.579Z,7.73
2017-10-26T13:15:08.106Z,7.67
2017-10-26T13:17:36.434Z,8.80
2017-10-26T13:20:03.947Z,7.50
2017-10-26T13:22:32.239Z,7.90
2017-10-26T13:25:00.529Z,5.30
2017-10-26T13:27:28.039Z,8.10
2017-10-26T13:29:55.585Z,8.53
2017-10-26T13:32:23.114Z,8.20
2017-10-26T13:34:50.642Z,7.80
2017-10-26T13:37:18.937Z,7.00
2017-10-26T13:39:46.495Z,6.70
2017-10-26T13:42:14.014Z,7.77
2017-10-26T13:44:41.553Z,7.40
2017-10-26T13:47:09.102Z,6.00
2017-10-26T13:49:36.625Z,5.23
2017-10-26T13:52:04.935Z,5.43
2017-10-26T13:54:32.466Z,6.40
2017-10-26T13:57:00.014Z,6.23
2017-10-26T13:59:27.546Z,7.13
2017-10-26T14:01:55.085Z,8.23
2017-10-26T14:04:22.609Z,7.40
2017-10-26T14:06:50.156Z,6.07
2017-10-26T14:09:17.680Z,7.37
2017-10-26T14:11:45.210Z,7.93
2017-10-26T14:14:13.674Z,7.47
2017-10-26T14:16:41.216Z,8.37
2017-10-26T14:19:08.779Z,9.17
2017-10-26T14:21:36.305Z,9.83
2017-10-26T14:24:04.761Z,9.43
2017-10-26T14:26:32.313Z,9.07
2017-10-26T14:28:59.862Z,10.47
2017-10-26T14:31:27.438Z,7.93
2017-10-26T14:33:54.992Z,11.03
2017-10-26T14:36:22.505Z,10.20
2017-10-26T14:38:50.038Z,8.63
2017-10-26T14:41:18.349Z,13.83
2017-10-26T14:43:45.896Z,10.03
2017-10-26T14:46:13.425Z,11.03
2017-10-26T14:48:41.058Z,11.73
2017-10-26T14:51:09.349Z,8.60
2017-10-26T14:53:36.864Z,9.47
2017-10-26T14:56:04.404Z,12.10
2017-10-26T14:58:31.913Z,12.13
2017-10-26T15:01:00.206Z,12.10
2017-10-26T15:03:27.763Z,12.87
2017-10-26T15:05:55.285Z,11.40
2017-10-26T15:08:22.843Z,11.70
2017-10-26T15:10:50.366Z,12.00
2017-10-26T15:13:17.986Z,14.10
2017-10-26T15:15:46.364Z,13.43
2017-10-26T15:18:13.947Z,11.03
2017-10-26T15:20:41.509Z,11.33
2017-10-26T15:23:09.122Z,14.53
2017-10-26T15:25:36.657Z,13.13
2017-10-26T15:28:04.178Z,12.17
2017-10-26T15:30:32.472Z,10.57
2017-10-26T15:32:59.988Z,8.90
2017-10-26T15:35:27.582Z,14.70
2017-10-26T15:37:55.896Z,11.67
2017-10-26T15:40:23.423Z,18.50
2017-10-26T15:42:51.709Z,15.93
2017-10-26T15:45:19.237Z,18.40
2017-10-26T15:47:47.270Z,16.17
2017-10-26T15:50:14.849Z,17.77
2017-10-26T15:52:42.391Z,15.17
2017-10-26T15:55:10.934Z,15.50
2017-10-26T15:57:40.187Z,17.20
2017-10-26T16:00:07.848Z,13.47
2017-10-26T16:02:37.140Z,21.37
2017-10-26T16:05:05.559Z,15.10
2017-10-26T16:08:02.107Z,17.33
2017-10-26T16:10:46.041Z,16.90
2017-10-26T16:16:00.309Z,16.93
2017-10-26T16:18:27.908Z,14.60
2017-10-26T16:20:58.140Z,16.60
2017-10-26T16:23:25.763Z,13.73
2017-10-26T16:26:04.454Z,16.80
2017-10-26T16:28:32.840Z,18.47
2017-10-26T16:37:16.766Z,18.50
2017-10-26T16:39:44.315Z,14.03
2017-10-26T16:42:21.746Z,17.20
2017-10-26T16:44:49.333Z,21.40
2017-10-26T16:50:09.807Z,16.93
2017-10-26T16:52:37.335Z,15.40
2017-10-26T16:55:04.908Z,14.47
2017-10-26T16:57:32.525Z,15.27
2017-10-26T17:00:00.091Z,17.20
2017-10-26T17:02:27.660Z,16.07
2017-10-26T17:04:55.226Z,17.50
2017-10-26T17:07:22.783Z,16.10
2017-10-26T17:09:50.366Z,17.60
2017-10-26T17:12:17.922Z,15.50
2017-10-26T17:14:45.464Z,13.02
2017-10-26T17:17:13.050Z,14.77
2017-10-26T17:19:40.652Z,13.98
2017-10-26T17:22:08.222Z,14.43
2017-10-26T17:24:35.802Z,17.27
2017-10-26T17:27:03.335Z,17.25
2017-10-26T17:29:30.909Z,17.23
2017-10-26T17:31:58.486Z,16.60
2017-10-26T17:34:26.258Z,16.02
2017-10-26T17:36:53.820Z,21.95
2017-10-26T17:39:21.376Z,14.93
2017-10-26T17:41:48.935Z,15.23
2017-10-26T17:44:16.509Z,19.25
2017-10-26T17:46:44.052Z,14.77
2017-10-26T17:49:11.681Z,18.33
2017-10-26T17:51:39.298Z,14.57
2017-10-26T17:54:10.267Z,18.50
2017-10-26T17:56:37.886Z,14.07
2017-10-26T17:59:05.523Z,16.73
2017-10-26T18:01:33.156Z,15.57
2017-10-26T18:04:00.776Z,16.30
2017-10-26T18:06:28.386Z,21.50
2017-10-26T18:08:55.962Z,23.17
2017-10-26T18:11:23.567Z,23.43
2017-10-26T18:13:51.968Z,25.10
2017-10-26T18:16:20.321Z,14.68
2017-10-26T18:18:47.888Z,15.50
2017-10-26T18:21:25.806Z,22.42
2017-10-26T18:23:53.379Z,16.33
2017-10-26T18:26:20.919Z,19.63
2017-10-26T18:28:54.186Z,17.63
2017-10-26T18:31:25.628Z,17.70
2017-10-26T18:33:53.290Z,17.80
2017-10-26T18:36:20.859Z,19.43
2017-10-26T18:38:48.441Z,20.48
2017-10-26T18:41:16.810Z,16.10
2017-10-26T18:43:44.403Z,17.37
2017-10-26T18:46:11.998Z,16.97
2017-10-26T18:48:39.592Z,16.07
2017-10-26T18:51:07.192Z,17.50
2017-10-26T18:53:34.762Z,16.75
2017-10-26T18:56:02.330Z,17.85
2017-10-26T18:58:29.858Z,21.33
2017-10-26T19:00:57.396Z,21.58
2017-10-26T19:03:25.035Z,17.70
2017-10-26T19:05:53.382Z,24.20
2017-10-26T19:08:20.972Z,15.70
2017-10-26T19:10:48.556Z,17.75
2017-10-26T19:13:16.176Z,14.55
2017-10-26T19:15:43.760Z,17.48
2017-10-26T19:18:11.331Z,19.17
2017-10-26T19:20:39.748Z,22.75
2017-10-26T19:23:07.308Z,31.52
2017-10-26T19:25:34.985Z,24.80
2017-10-26T19:28:02.607Z,29.75
2017-10-26T19:30:30.246Z,30.88
2017-10-26T19:32:57.916Z,37.40
2017-10-26T19:35:25.542Z,37.05
2017-10-26T19:37:53.070Z,39.40
2017-10-26T19:40:22.291Z,34.75
2017-10-26T19:42:50.941Z,32.43
2017-10-26T19:45:18.485Z,29.33
2017-10-26T19:47:46.474Z,28.23
2017-10-26T19:50:14.079Z,28.40
2017-10-26T19:52:41.789Z,27.90
2017-10-26T19:55:09.507Z,34.88
2017-10-26T19:57:37.220Z,32.03
2017-10-26T20:00:04.934Z,38.20
2017-10-26T20:02:34.768Z,34.40
2017-10-26T20:05:02.567Z,38.85
2017-10-26T20:07:30.197Z,31.27
2017-10-26T20:09:57.806Z,34.97
2017-10-26T20:12:25.412Z,39.15
2017-10-26T20:14:53.021Z,33.60
2017-10-26T20:17:20.683Z,33.30
2017-10-26T20:19:48.355Z,32.20
2017-10-26T20:22:16.722Z,26.33
2017-10-26T20:24:44.327Z,29.23
2017-10-26T20:27:11.945Z,30.05
2017-10-26T20:29:39.515Z,26.97
2017-10-26T20:32:07.097Z,28.50
2017-10-26T20:34:34.697Z,25.23
2017-10-26T20:37:02.327Z,26.87
2017-10-26T20:39:29.910Z,28.13
2017-10-26T20:41:57.719Z,26.40
2017-10-26T20:44:25.357Z,27.57
2017-10-26T20:46:52.900Z,26.40
2017-10-26T20:49:26.231Z,28.62
2017-10-26T20:51:59.447Z,25.90
2017-10-26T20:54:32.570Z,26.93
2017-10-26T20:57:05.669Z,25.27
2017-10-26T20:59:38.894Z,28.50
2017-10-26T21:02:12.145Z,27.62
2017-10-26T21:04:45.408Z,25.93
2017-10-26T21:07:18.744Z,25.58
2017-10-26T21:09:46.319Z,22.27
2017-10-26T21:15:20.038Z,22.17
2017-10-26T21:17:47.719Z,19.47
2017-10-26T21:20:15.315Z,22.60
2017-10-26T21:22:42.865Z,23.83
2017-10-26T21:25:10.436Z,22.42
2017-10-26T21:27:38.742Z,25.20
2017-10-26T21:30:06.296Z,19.73
2017-10-26T21:32:33.860Z,23.50
2017-10-26T21:35:01.404Z,25.27
2017-10-26T21:37:28.979Z,19.07
2017-10-26T21:39:57.283Z,19.30
2017-10-26T21:42:25.634Z,21.57
2017-10-26T21:44:53.196Z,25.52
2017-10-26T21:47:20.730Z,21.60
2017-10-26T21:49:48.322Z,20.10
2017-10-26T21:52:15.866Z,24.07
2017-10-26T21:54:43.413Z,20.77
2017-10-26T21:57:10.970Z,21.35
2017-10-26T21:59:38.562Z,18.60
2017-10-26T22:02:06.099Z,20.80
2017-10-26T22:04:33.662Z,20.33
2017-10-26T22:07:01.225Z,23.98
2017-10-26T22:09:28.756Z,20.33
2017-10-26T22:11:57.053Z,24.73
2017-10-26T22:14:24.576Z,17.95
2017-10-26T22:16:52.097Z,21.77
2017-10-26T22:19:19.602Z,25.92
2017-10-26T22:21:47.913Z,17.85
2017-10-26T22:24:15.425Z,17.20
2017-10-26T22:26:42.934Z,22.77
2017-10-26T22:29:10.471Z,23.05
2017-10-26T22:31:38.741Z,22.03
2017-10-26T22:34:07.033Z,23.20
2017-10-26T22:36:34.566Z,20.88
2017-10-26T22:39:02.850Z,19.30
2017-10-26T22:41:31.129Z,24.63
2017-10-26T22:43:59.436Z,20.05
2017-10-26T22:46:26.950Z,23.60
2017-10-26T22:48:55.261Z,20.83
2017-10-26T22:51:22.779Z,18.80
2017-10-26T22:53:50.805Z,18.08
2017-10-26T22:56:18.325Z,18.15
2017-10-26T22:58:45.846Z,23.13
2017-10-26T23:01:13.373Z,22.52
2017-10-26T23:03:40.885Z,20.30
2017-10-26T23:06:08.426Z,21.95
2017-10-26T23:08:35.954Z,19.83
2017-10-26T23:11:03.493Z,19.77
2017-10-26T23:13:31.004Z,19.45
2017-10-26T23:15:58.536Z,25.37
2017-10-26T23:18:26.036Z,25.50
2017-10-26T23:20:53.565Z,19.00
2017-10-26T23:23:21.078Z,18.42
2017-10-26T23:25:48.592Z,26.08
2017-10-26T23:28:16.121Z,25.77
2017-10-26T23:30:43.633Z,18.27
2017-10-26T23:33:11.934Z,17.87
2017-10-26T23:35:39.448Z,19.77
2017-10-26T23:38:06.976Z,18.90
2017-10-26T23:40:34.496Z,18.00
2017-10-26T23:43:02.777Z,20.17
2017-10-26T23:45:30.308Z,23.52
2017-10-26T23:47:57.822Z,20.62
2017-10-26T23:50:25.356Z,20.02
2017-10-26T23:52:52.868Z,22.77
2017-10-26T23:55:20.398Z,18.48
2017-10-26T23:57:47.900Z,20.00
